Time;durP1;ratioP1;P1;durP2;ratioP2;P2;SDS_P1;SDS_P2;PMS_P1;PMS_P2;Temp;Humidity;BMP_temperature;BMP_pressure;BME280_temperature;BME280_humidity;BME280_pressure;Samples;Min_cycle;Max_cycle;Signal;HPM_P1;HPM_P2
2023/06/14 00:02:07;;;;;;;;;;;;;;;14.16;60.68;101590.41;107017;1265;60695;-86
2023/06/14 00:04:48;;;;;;;;;;;;;;;14.13;60.66;101586.09;106757;1262;125554;-86
2023/06/14 00:07:34;;;;;;;;;;;;;;;14.10;60.71;101585.85;106853;1265;74833;-86
2023/06/14 00:10:00;;;;;;;;;;;;;;;14.08;60.78;101579.80;106903;1261;125755;-86
2023/06/14 00:12:32;;;;;;;;;;;;;;;14.08;60.74;101582.80;106951;1266;61747;-85
2023/06/14 00:15:01;;;;;;;;;;;;;;;14.09;60.75;101579.82;106869;1261;61370;-86
2023/06/14 00:17:47;;;;;;;;;;;;;;;14.11;60.89;101574.92;106880;1263;125099;-86
2023/06/14 00:20:26;;;;;;;;;;;;;;;14.14;60.98;101576.95;106717;1261;73415;-86
2023/06/14 00:22:59;;;;;;;;;;;;;;;14.20;61.02;101579.55;106435;1264;124706;-86
2023/06/14 00:25:33;;;;;;;;;;;;;;;14.26;61.10;101578.27;106803;1261;71340;-87
2023/06/14 00:28:12;;;;;;;;;;;;;;;14.31;61.10;101575.05;106648;1262;124641;-87
2023/06/14 00:30:46;;;;;;;;;;;;;;;14.36;61.11;101571.64;106938;1261;61173;-83
2023/06/14 00:33:22;;;;;;;;;;;;;;;14.40;61.04;101572.06;106853;1260;74652;-85
2023/06/14 00:35:53;;;;;;;;;;;;;;;14.40;60.84;101571.71;106871;1262;124284;-87
2023/06/14 00:38:29;;;;;;;;;;;;;;;14.39;60.82;101572.57;106925;1260;70246;-87
2023/06/14 00:40:58;;;;;;;;;;;;;;;14.38;60.72;101576.27;106949;1261;124277;-87
2023/06/14 00:43:37;;;;;;;;;;;;;;;14.38;60.73;101579.44;107059;1260;59242;-87
2023/06/14 00:46:23;;;;;;;;;;;;;;;14.37;60.86;101579.95;106850;1261;125006;-86
2023/06/14 00:49:01;;;;;;;;;;;;;;;14.38;60.93;101573.95;107043;1260;65705;-86
2023/06/14 00:51:28;;;;;;;;;;;;;;;14.37;60.97;101575.88;106980;1260;72526;-85
2023/06/14 00:53:55;;;;;;;;;;;;;;;14.38;61.07;101573.62;106668;1261;125368;-86
2023/06/14 00:56:23;;;;;;;;;;;;;;;14.39;61.27;101573.63;106746;1267;61373;-86
2023/06/14 00:58:51;;;;;;;;;;;;;;;14.40;61.34;101574.54;106849;1260;124517;-86
2023/06/14 01:01:17;;;;;;;;;;;;;;;14.40;61.35;101573.84;106998;1262;67221;-88
2023/06/14 01:03:59;;;;;;;;;;;;;;;14.39;61.21;101574.52;106970;1261;60043;-86
2023/06/14 01:06:32;;;;;;;;;;;;;;;14.35;61.21;101575.49;106765;1261;60496;-84
2023/06/14 01:09:17;;;;;;;;;;;;;;;14.30;61.32;101571.49;107063;1261;60465;-84
2023/06/14 01:11:51;;;;;;;;;;;;;;;14.25;61.34;101573.31;106753;1260;125151;-85
2023/06/14 01:14:18;;;;;;;;;;;;;;;14.21;61.51;101572.52;106864;1264;67607;-84
2023/06/14 01:16:57;;;;;;;;;;;;;;;14.17;61.57;101571.02;106880;1260;124388;-86
2023/06/14 01:19:25;;;;;;;;;;;;;;;14.13;61.70;101572.70;106943;1260;61128;-87
2023/06/14 01:21:52;;;;;;;;;;;;;;;14.11;61.88;101575.80;106971;1261;59696;-88
2023/06/14 01:24:23;;;;;;;;;;;;;;;14.06;61.96;101570.23;106807;1260;124153;-88
2023/06/14 01:26:51;;;;;;;;;;;;;;;14.03;62.07;101568.21;106894;1261;66658;-89
2023/06/14 01:29:32;;;;;;;;;;;;;;;13.97;62.14;101563.66;106796;1265;70895;-90
2023/06/14 01:32:06;;;;;;;;;;;;;;;13.89;62.15;101561.70;106965;1262;60874;-88
2023/06/14 01:34:32;;;;;;;;;;;;;;;13.82;62.37;101558.19;106897;1261;61284;-88
2023/06/14 01:37:11;;;;;;;;;;;;;;;13.77;62.53;101557.17;106621;1260;61350;-87
2023/06/14 01:39:44;;;;;;;;;;;;;;;13.72;62.81;101554.05;106548;1260;65711;-85
2023/06/14 01:42:12;;;;;;;;;;;;;;;13.71;63.33;101555.45;106660;1260;73126;-87
2023/06/14 01:44:41;;;;;;;;;;;;;;;13.74;63.79;101557.46;106669;1260;60879;-89
2023/06/14 01:47:07;;;;;;;;;;;;;;;13.78;64.00;101561.60;106839;1261;61196;-90
2023/06/14 01:49:34;;;;;;;;;;;;;;;13.80;64.09;101562.02;106960;1261;62187;-87
2023/06/14 01:52:03;;;;;;;;;;;;;;;13.83;64.30;101560.84;106884;1265;65421;-87
2023/06/14 01:54:37;;;;;;;;;;;;;;;13.87;64.53;101561.45;107007;1260;73256;-90
2023/06/14 01:57:11;;;;;;;;;;;;;;;13.92;64.69;101562.66;106856;1261;59567;-87
2023/06/14 01:59:53;;;;;;;;;;;;;;;13.98;64.81;101558.03;106626;1264;124951;-90
2023/06/14 02:02:19;;;;;;;;;;;;;;;14.03;64.91;101552.86;106870;1261;73099;-87
2023/06/14 02:07:53;;;;;;;;;;;;;;;14.08;64.82;101546.11;106885;1260;71380;-86
2023/06/14 02:10:39;;;;;;;;;;;;;;;14.09;64.76;101547.34;106590;1260;125375;-87
2023/06/14 02:13:12;;;;;;;;;;;;;;;14.10;64.96;101547.02;106861;1260;62073;-90
2023/06/14 02:15:40;;;;;;;;;;;;;;;14.11;65.06;101542.64;106852;1260;73829;-85
2023/06/14 02:18:08;;;;;;;;;;;;;;;14.15;65.16;101540.27;106870;1260;124991;-89
2023/06/14 02:20:40;;;;;;;;;;;;;;;14.20;65.23;101540.88;106671;1260;72596;-88
2023/06/14 02:23:07;;;;;;;;;;;;;;;14.26;65.38;101542.26;106472;1260;125111;-88
2023/06/14 02:25:34;;;;;;;;;;;;;;;14.30;65.34;101544.83;106420;1261;62183;-89
2023/06/14 02:28:18;;;;;;;;;;;;;;;14.35;65.08;101544.76;106787;1261;74387;-88
2023/06/14 02:30:47;;;;;;;;;;;;;;;14.36;64.92;101548.33;106785;1260;64938;-85
2023/06/14 02:33:17;;;;;;;;;;;;;;;14.38;64.81;101549.77;106947;1260;72479;-86
2023/06/14 02:35:46;;;;;;;;;;;;;;;14.41;64.94;101547.19;106883;1261;124911;-84
2023/06/14 02:38:13;;;;;;;;;;;;;;;14.45;65.04;101544.45;106931;1260;59375;-84
2023/06/14 02:40:42;;;;;;;;;;;;;;;14.48;65.04;101544.16;106770;1260;124425;-85
2023/06/14 02:43:10;;;;;;;;;;;;;;;14.50;65.20;101540.16;106895;1260;64890;-85
2023/06/14 02:45:38;;;;;;;;;;;;;;;14.54;65.18;101539.35;106914;1262;71551;-86
2023/06/14 02:48:04;;;;;;;;;;;;;;;14.59;65.23;101540.38;106866;1260;124511;-87
2023/06/14 02:50:49;;;;;;;;;;;;;;;14.65;65.34;101539.08;106919;1265;60310;-87
2023/06/14 02:53:36;;;;;;;;;;;;;;;14.71;65.37;101541.16;106741;1261;124593;-87
2023/06/14 02:56:03;;;;;;;;;;;;;;;14.77;65.34;101536.69;106618;1260;66947;-88
2023/06/14 02:58:54;;;;;;;;;;;;;;;14.84;65.33;101540.18;106449;1264;124614;-88
2023/06/14 03:01:21;;;;;;;;;;;;;;;14.92;64.96;101543.00;106575;1261;62211;-88
2023/06/14 03:04:08;;;;;;;;;;;;;;;14.95;64.66;101541.13;106597;1260;61251;-89
2023/06/14 03:07:09;;;;;;;;;;;;;;;14.99;64.47;101541.01;106480;1261;124415;-86
2023/06/14 03:09:49;;;;;;;;;;;;;;;15.05;64.39;101547.30;106555;1263;65859;-86
2023/06/14 03:12:18;;;;;;;;;;;;;;;15.12;64.40;101545.15;106593;1261;125374;-91
2023/06/14 03:15:06;;;;;;;;;;;;;;;15.19;64.43;101543.70;106854;1261;61379;-91
2023/06/14 03:17:45;;;;;;;;;;;;;;;15.29;64.58;101548.11;106675;1261;125530;-91
2023/06/14 03:20:11;;;;;;;;;;;;;;;15.42;64.66;101550.98;106948;1260;74432;-91
2023/06/14 03:22:39;;;;;;;;;;;;;;;15.54;64.62;101548.91;106752;1261;125236;-91
2023/06/14 03:25:13;;;;;;;;;;;;;;;15.66;64.63;101550.72;106781;1260;73088;-91
2023/06/14 03:27:58;;;;;;;;;;;;;;;15.77;64.62;101553.58;106833;1262;60064;-91
2023/06/14 03:30:31;;;;;;;;;;;;;;;15.89;64.63;101553.23;106654;1260;124970;-89
2023/06/14 03:33:10;;;;;;;;;;;;;;;16.03;64.54;101557.17;106740;1264;73051;-90
2023/06/14 03:35:38;;;;;;;;;;;;;;;16.16;64.50;101553.30;106469;1260;124935;-90
2023/06/14 03:38:06;;;;;;;;;;;;;;;16.28;64.34;101558.77;106698;1264;72749;-87
2023/06/14 03:40:33;;;;;;;;;;;;;;;16.41;64.34;101554.71;106860;1262;124488;-86
2023/06/14 03:43:01;;;;;;;;;;;;;;;16.55;64.31;101559.70;107120;1260;60262;-87
2023/06/14 03:45:33;;;;;;;;;;;;;;;16.67;64.16;101566.77;106840;1260;74555;-88
2023/06/14 03:48:15;;;;;;;;;;;;;;;16.83;63.85;101567.33;106731;1260;124512;-89
2023/06/14 03:50:50;;;;;;;;;;;;;;;17.85;65.39;101563.73;106827;1260;71665;-87
2023/06/14 03:53:32;;;;;;;;;;;;;;;20.07;65.00;101558.14;106805;1264;124318;-87
2023/06/14 03:56:08;;;;;;;;;;;;;;;22.34;62.47;101556.13;106887;1260;60190;-85
2023/06/14 03:58:34;;;;;;;;;;;;;;;24.25;59.98;101554.81;106834;1261;124489;-86
2023/06/14 04:01:06;;;;;;;;;;;;;;;25.88;57.40;101553.20;106966;1261;60022;-90
2023/06/14 04:03:33;;;;;;;;;;;;;;;27.38;54.79;101548.73;107045;1261;71296;-86
2023/06/14 04:06:32;;;;;;;;;;;;;;;28.46;51.99;101547.93;106945;1261;124321;-87
2023/06/14 04:09:03;;;;;;;;;;;;;;;29.28;49.81;101553.48;107014;1261;61714;-89
2023/06/14 04:11:36;;;;;;;;;;;;;;;29.71;47.50;101553.36;106838;1260;124757;-91
2023/06/14 04:14:03;;;;;;;;;;;;;;;29.42;46.03;101553.80;107195;1260;62077;-90
2023/06/14 04:16:29;;;;;;;;;;;;;;;28.82;45.45;101552.59;107028;1260;124565;-89
2023/06/14 04:18:58;;;;;;;;;;;;;;;28.71;45.22;101551.55;106990;1261;60068;-88
2023/06/14 04:21:25;;;;;;;;;;;;;;;28.73;44.47;101550.92;106883;1260;60339;-86
2023/06/14 04:24:03;;;;;;;;;;;;;;;29.14;44.89;101548.05;106621;1260;124351;-88
2023/06/14 04:26:29;;;;;;;;;;;;;;;29.68;43.30;101548.05;106910;1260;62720;-85
2023/06/14 04:28:56;;;;;;;;;;;;;;;29.43;42.35;101547.64;106809;1260;125074;-90
2023/06/14 04:31:26;;;;;;;;;;;;;;;28.93;42.74;101545.11;106953;1260;61402;-86
2023/06/14 04:33:53;;;;;;;;;;;;;;;29.82;42.95;101547.60;107018;1261;62164;-86
2023/06/14 04:36:27;;;;;;;;;;;;;;;30.36;41.02;101549.43;106731;1260;124447;-88
2023/06/14 04:39:03;;;;;;;;;;;;;;;29.62;40.81;101548.45;106683;1260;66539;-86
2023/06/14 04:41:30;;;;;;;;;;;;;;;29.68;40.97;101547.70;106760;1260;125083;-85
2023/06/14 04:43:58;;;;;;;;;;;;;;;30.42;40.63;101548.48;107148;1261;60890;-84
2023/06/14 04:46:25;;;;;;;;;;;;;;;29.99;39.45;101550.52;107433;1260;124842;-84
2023/06/14 04:48:51;;;;;;;;;;;;;;;29.28;39.60;101547.33;107669;1260;61128;-83
2023/06/14 04:51:29;;;;;;;;;;;;;;;28.88;40.22;101542.77;107069;1260;61451;-85
2023/06/14 04:53:59;;;;;;;;;;;;;;;29.86;40.37;101542.05;106957;1260;124809;-85
2023/06/14 04:56:26;;;;;;;;;;;;;;;30.04;39.29;101546.17;106825;1260;61533;-86
2023/06/14 04:58:53;;;;;;;;;;;;;;;29.15;38.68;101544.96;106956;1260;124630;-86
2023/06/14 05:01:23;;;;;;;;;;;;;;;27.95;39.02;101545.05;106763;1261;74742;-86
2023/06/14 05:03:58;;;;;;;;;;;;;;;26.76;39.67;101544.52;106977;1260;66951;-86
2023/06/14 05:06:24;;;;;;;;;;;;;;;25.78;40.75;101550.42;106898;1261;124472;-88
2023/06/14 05:08:56;;;;;;;;;;;;;;;25.34;41.82;101554.20;107121;1260;59409;-85
2023/06/14 05:11:24;;;;;;;;;;;;;;;25.39;42.28;101557.48;107143;1261;124786;-85
2023/06/14 05:13:51;;;;;;;;;;;;;;;25.34;42.38;101556.34;107207;1260;73328;-86
2023/06/14 05:16:19;;;;;;;;;;;;;;;25.43;42.66;101558.31;107341;1260;66761;-85
2023/06/14 05:18:47;;;;;;;;;;;;;;;25.38;42.55;101559.68;107238;1260;72947;-85
2023/06/14 05:21:17;;;;;;;;;;;;;;;25.14;42.56;101556.61;107126;1260;62046;-83
2023/06/14 05:23:44;;;;;;;;;;;;;;;25.18;42.86;101555.62;107039;1260;124472;-85
2023/06/14 05:26:11;;;;;;;;;;;;;;;25.05;42.54;101555.18;107103;1260;73314;-84
2023/06/14 05:28:39;;;;;;;;;;;;;;;24.75;42.72;101552.08;106808;1260;124608;-85
2023/06/14 05:31:12;;;;;;;;;;;;;;;24.52;43.01;101550.39;106893;1260;72714;-88
2023/06/14 05:33:38;;;;;;;;;;;;;;;24.50;43.27;101550.60;107010;1260;61160;-85
2023/06/14 05:36:05;;;;;;;;;;;;;;;24.26;43.19;101551.77;107132;1261;124379;-85
2023/06/14 05:38:31;;;;;;;;;;;;;;;23.90;43.27;101551.88;106984;1261;74180;-85
2023/06/14 05:40:59;;;;;;;;;;;;;;;23.58;43.58;101561.19;106733;1260;125160;-83
2023/06/14 05:43:26;;;;;;;;;;;;;;;23.24;44.07;101555.98;106996;1260;72787;-84
2023/06/14 05:45:55;;;;;;;;;;;;;;;23.03;44.33;101556.43;106954;1263;62116;-84
2023/06/14 05:48:22;;;;;;;;;;;;;;;22.96;44.96;101562.05;106884;1260;124691;-84
2023/06/14 05:50:48;;;;;;;;;;;;;;;23.04;45.03;101558.94;106957;1265;74241;-84
2023/06/14 05:53:15;;;;;;;;;;;;;;;23.04;45.08;101561.98;106596;1260;124559;-84
2023/06/14 05:55:41;;;;;;;;;;;;;;;23.09;45.31;101561.93;106774;1260;60904;-83
2023/06/14 05:58:08;;;;;;;;;;;;;;;23.14;44.99;101570.45;106884;1261;59350;-83
2023/06/14 06:00:41;;;;;;;;;;;;;;;23.08;45.21;101566.60;106929;1263;124302;-85
2023/06/14 06:03:09;;;;;;;;;;;;;;;23.23;45.17;101566.38;106901;1261;72426;-85
2023/06/14 06:05:36;;;;;;;;;;;;;;;23.26;44.80;101566.49;106793;1263;124599;-84
2023/06/14 06:08:04;;;;;;;;;;;;;;;23.21;44.66;101567.11;106804;1260;71181;-86
2023/06/14 06:10:30;;;;;;;;;;;;;;;23.15;44.85;101566.13;106512;1260;124737;-84
2023/06/14 06:12:57;;;;;;;;;;;;;;;23.19;44.61;101568.41;106916;1260;61312;-84
2023/06/14 06:15:23;;;;;;;;;;;;;;;23.16;44.49;101568.80;107101;1260;61247;-84
2023/06/14 06:17:50;;;;;;;;;;;;;;;23.10;44.56;101570.33;106998;1260;124396;-84
2023/06/14 06:20:18;;;;;;;;;;;;;;;23.14;44.42;101573.40;106945;1260;71716;-84
2023/06/14 06:22:44;;;;;;;;;;;;;;;23.20;44.10;101570.16;106842;1260;125013;-85
2023/06/14 06:25:16;;;;;;;;;;;;;;;23.17;43.70;101577.73;107144;1260;61268;-84
2023/06/14 06:27:44;;;;;;;;;;;;;;;22.99;43.58;101574.20;106953;1260;74653;-84
2023/06/14 06:30:10;;;;;;;;;;;;;;;22.87;43.57;101568.80;106682;1260;125022;-84
2023/06/14 06:32:37;;;;;;;;;;;;;;;22.94;43.60;101572.48;106980;1260;73207;-83
2023/06/14 06:35:16;;;;;;;;;;;;;;;22.86;43.45;101576.34;107013;1260;125251;-83
2023/06/14 06:37:42;;;;;;;;;;;;;;;22.74;43.12;101572.73;107577;1262;61186;-85
2023/06/14 06:40:10;;;;;;;;;;;;;;;22.61;43.29;101570.56;106963;1260;59730;-85
2023/06/14 06:42:36;;;;;;;;;;;;;;;22.60;43.30;101568.96;106965;1260;125206;-83
2023/06/14 06:45:03;;;;;;;;;;;;;;;22.61;43.14;101570.73;107174;1260;62205;-83
2023/06/14 06:47:29;;;;;;;;;;;;;;;22.54;42.97;101574.20;106842;1261;124811;-83
2023/06/14 06:49:57;;;;;;;;;;;;;;;22.55;43.03;101571.70;107038;1261;59489;-83
2023/06/14 06:52:25;;;;;;;;;;;;;;;22.62;42.95;101570.19;106925;1260;125383;-83
2023/06/14 06:54:54;;;;;;;;;;;;;;;22.77;42.89;101574.13;106724;1261;65707;-84
2023/06/14 06:57:22;;;;;;;;;;;;;;;22.90;42.45;101572.88;106737;1260;72468;-83
2023/06/14 06:59:50;;;;;;;;;;;;;;;22.92;42.24;101575.90;106901;1260;124397;-84
2023/06/14 07:02:18;;;;;;;;;;;;;;;22.99;42.24;101576.17;106953;1260;61931;-84
2023/06/14 07:04:46;;;;;;;;;;;;;;;22.99;41.95;101577.41;106691;1260;124579;-84
2023/06/14 07:07:18;;;;;;;;;;;;;;;22.94;41.92;101579.99;106807;1264;67026;-85
2023/06/14 07:09:45;;;;;;;;;;;;;;;23.10;41.81;101576.05;107048;1260;72568;-83
2023/06/14 07:12:12;;;;;;;;;;;;;;;23.16;41.46;101582.40;107082;1263;124598;-83
2023/06/14 07:14:38;;;;;;;;;;;;;;;23.19;41.24;101585.40;107115;1260;59959;-83
2023/06/14 07:17:04;;;;;;;;;;;;;;;23.13;41.18;101585.68;106904;1260;124412;-83
2023/06/14 07:19:33;;;;;;;;;;;;;;;23.18;41.31;101588.48;106975;1260;59529;-83
2023/06/14 07:22:01;;;;;;;;;;;;;;;23.34;41.11;101596.66;107039;1260;71366;-83
2023/06/14 07:24:36;;;;;;;;;;;;;;;23.48;40.93;101590.36;106914;1260;124319;-83
2023/06/14 07:27:04;;;;;;;;;;;;;;;23.68;40.67;101594.72;106775;1261;62122;-84
2023/06/14 07:29:35;;;;;;;;;;;;;;;23.85;40.29;101593.57;106655;1260;124522;-84
2023/06/14 07:32:02;;;;;;;;;;;;;;;24.08;40.07;101595.15;106838;1260;67599;-84
2023/06/14 07:34:29;;;;;;;;;;;;;;;24.18;39.65;101597.66;107234;1261;71425;-84
2023/06/14 07:36:57;;;;;;;;;;;;;;;24.22;39.42;101598.30;106966;1264;62200;-83
2023/06/14 07:39:23;;;;;;;;;;;;;;;24.31;39.33;101591.86;107098;1260;59532;-84
2023/06/14 07:41:49;;;;;;;;;;;;;;;24.56;39.22;101590.86;107146;1261;124908;-83
2023/06/14 07:44:29;;;;;;;;;;;;;;;24.60;38.53;101597.61;107093;1261;61330;-84
2023/06/14 07:47:02;;;;;;;;;;;;;;;24.43;38.33;101595.22;106797;1265;124608;-84
2023/06/14 07:49:30;;;;;;;;;;;;;;;24.47;38.49;101597.67;106985;1260;60412;-85
2023/06/14 07:52:04;;;;;;;;;;;;;;;24.59;38.39;101594.23;106938;1260;61166;-85
2023/06/14 07:54:32;;;;;;;;;;;;;;;24.63;38.28;101598.27;106855;1260;124585;-85
2023/06/14 07:57:00;;;;;;;;;;;;;;;24.62;37.94;101595.05;107106;1261;66922;-83
2023/06/14 07:59:39;;;;;;;;;;;;;;;24.57;37.82;101595.89;107010;1260;124849;-85
2023/06/14 08:02:05;;;;;;;;;;;;;;;24.65;37.64;101595.19;107113;1261;61447;-83
2023/06/14 08:04:40;;;;;;;;;;;;;;;24.74;37.76;101591.59;107001;1260;125620;-84
2023/06/14 08:07:14;;;;;;;;;;;;;;;24.90;37.38;101599.35;107067;1260;74697;-84
2023/06/14 08:09:40;;;;;;;;;;;;;;;24.85;37.01;101598.00;107057;1261;65939;-84
2023/06/14 08:12:11;;;;;;;;;;;;;;;24.80;36.75;101603.50;106548;1261;125173;-86
2023/06/14 08:14:39;;;;;;;;;;;;;;;24.76;36.65;101603.02;106717;1262;61235;-84
2023/06/14 08:17:13;;;;;;;;;;;;;;;24.84;36.45;101603.77;106830;1260;124736;-84
2023/06/14 08:19:42;;;;;;;;;;;;;;;24.82;36.03;101609.02;106881;1261;75146;-85
2023/06/14 08:22:12;;;;;;;;;;;;;;;24.69;36.18;101603.02;106761;1260;67059;-84
2023/06/14 08:24:39;;;;;;;;;;;;;;;24.66;36.25;101607.55;106766;1262;125214;-85
2023/06/14 08:27:07;;;;;;;;;;;;;;;24.62;36.22;101609.94;106986;1260;60389;-85
2023/06/14 08:29:41;;;;;;;;;;;;;;;24.56;36.34;101605.04;106809;1260;124483;-84
2023/06/14 08:32:15;;;;;;;;;;;;;;;24.61;36.50;101603.16;106791;1260;73489;-85
2023/06/14 08:34:49;;;;;;;;;;;;;;;24.81;36.64;101603.11;106771;1260;124871;-84
2023/06/14 08:37:22;;;;;;;;;;;;;;;24.91;36.42;101603.80;106929;1260;73845;-84
2023/06/14 08:39:54;;;;;;;;;;;;;;;24.95;36.34;101610.00;106913;1261;60575;-85
2023/06/14 08:42:28;;;;;;;;;;;;;;;24.92;36.43;101608.08;106796;1260;124516;-85
2023/06/14 08:45:02;;;;;;;;;;;;;;;24.85;36.42;101609.30;106626;1260;73453;-86
2023/06/14 08:47:29;;;;;;;;;;;;;;;24.85;36.56;101603.20;106835;1261;125097;-86
2023/06/14 08:49:57;;;;;;;;;;;;;;;24.89;36.53;101611.55;106877;1263;60929;-86
2023/06/14 08:52:25;;;;;;;;;;;;;;;24.84;36.26;101615.62;106795;1260;61093;-84
2023/06/14 08:54:59;;;;;;;;;;;;;;;24.80;36.37;101613.72;106759;1260;124613;-86
2023/06/14 08:57:33;;;;;;;;;;;;;;;24.87;35.94;101610.35;106829;1260;72282;-84
2023/06/14 09:00:15;;;;;;;;;;;;;;;24.82;36.23;101604.35;106705;1260;286432;-86
2023/06/14 09:02:43;;;;;;;;;;;;;;;24.89;36.20;101607.60;106695;1261;72703;-85
2023/06/14 09:05:18;;;;;;;;;;;;;;;24.73;36.01;101605.98;106579;1262;123468;-84
2023/06/14 09:07:50;;;;;;;;;;;;;;;24.59;36.22;101605.71;107115;1260;60422;-86
2023/06/14 09:10:30;;;;;;;;;;;;;;;24.60;35.94;101600.66;107080;1260;75249;-85
2023/06/14 09:12:56;;;;;;;;;;;;;;;24.62;36.07;101601.86;106595;1260;67320;-84
2023/06/14 09:15:25;;;;;;;;;;;;;;;24.64;36.14;101609.91;106985;1262;60050;-84
2023/06/14 09:17:51;;;;;;;;;;;;;;;24.60;35.85;101598.86;106680;1261;124833;-85
2023/06/14 09:20:18;;;;;;;;;;;;;;;24.57;36.00;101599.64;106620;1261;60121;-86
2023/06/14 09:22:53;;;;;;;;;;;;;;;24.64;36.26;101604.89;106735;1261;124691;-85
2023/06/14 09:25:20;;;;;;;;;;;;;;;24.64;35.97;101600.22;106789;1260;67602;-85
2023/06/14 09:27:47;;;;;;;;;;;;;;;24.64;35.87;101595.73;106921;1261;71424;-85
2023/06/14 09:30:13;;;;;;;;;;;;;;;24.68;36.23;101596.73;106999;1262;124845;-86
2023/06/14 09:32:40;;;;;;;;;;;;;;;24.76;36.15;101593.52;107348;1261;62206;-85
2023/06/14 09:35:14;;;;;;;;;;;;;;;24.80;35.88;101593.80;106886;1260;125104;-86
2023/06/14 09:37:41;;;;;;;;;;;;;;;24.63;35.69;101603.30;106776;1263;66102;-86
2023/06/14 09:40:10;;;;;;;;;;;;;;;24.47;35.97;101600.88;106785;1261;61229;-87
2023/06/14 09:42:37;;;;;;;;;;;;;;;24.39;36.24;101599.96;106828;1260;124364;-85
2023/06/14 09:45:13;;;;;;;;;;;;;;;24.29;36.23;101599.98;106756;1260;59804;-84
2023/06/14 09:47:53;;;;;;;;;;;;;;;23.99;36.19;101600.33;106931;1262;124972;-85
2023/06/14 09:50:19;;;;;;;;;;;;;;;23.75;36.43;101597.48;106963;1262;65950;-85
2023/06/14 09:52:46;;;;;;;;;;;;;;;23.74;36.82;101597.66;106817;1260;124508;-85
2023/06/14 09:55:14;;;;;;;;;;;;;;;23.81;36.73;101603.30;106964;1262;61678;-85
2023/06/14 09:57:51;;;;;;;;;;;;;;;23.74;36.66;101601.42;106828;1260;60102;-85
2023/06/14 10:00:20;;;;;;;;;;;;;;;23.70;36.76;101602.20;106768;1262;124387;-86
2023/06/14 10:02:50;;;;;;;;;;;;;;;23.70;36.88;101606.33;106958;1262;65718;-85
2023/06/14 10:05:22;;;;;;;;;;;;;;;23.71;37.00;101603.81;107060;1260;125464;-85
2023/06/14 10:08:04;;;;;;;;;;;;;;;23.70;37.00;101601.31;106996;1260;59992;-85
2023/06/14 10:10:33;;;;;;;;;;;;;;;23.66;37.05;101600.48;107085;1261;61246;-87
2023/06/14 10:13:14;;;;;;;;;;;;;;;23.61;37.03;101600.19;106939;1262;73494;-87
2023/06/14 10:15:59;;;;;;;;;;;;;;;23.55;37.00;101598.32;106838;1260;67184;-84
2023/06/14 10:18:50;;;;;;;;;;;;;;;23.48;36.91;101592.88;106522;1262;124580;-84
2023/06/14 10:21:55;;;;;;;;;;;;;;;23.45;37.08;101587.02;106866;1260;61221;-85
2023/06/14 10:24:35;;;;;;;;;;;;;;;23.49;37.38;101584.07;106444;1267;124642;-86
2023/06/14 10:27:12;;;;;;;;;;;;;;;23.58;37.32;101588.05;106437;1267;75466;-85
2023/06/14 10:29:56;;;;;;;;;;;;;;;23.58;37.15;101590.05;106420;1267;124850;-85
2023/06/14 10:32:25;;;;;;;;;;;;;;;23.52;37.03;101587.08;106416;1267;72469;-85
2023/06/14 10:35:04;;;;;;;;;;;;;;;23.59;37.15;101578.19;106432;1268;124766;-88
2023/06/14 10:37:30;;;;;;;;;;;;;;;23.66;37.37;101575.56;106465;1267;60339;-85
2023/06/14 10:40:02;;;;;;;;;;;;;;;23.70;36.98;101572.81;106257;1267;61276;-85
2023/06/14 10:42:51;;;;;;;;;;;;;;;23.66;36.78;101571.61;106203;1270;124436;-85
2023/06/14 10:45:23;;;;;;;;;;;;;;;23.62;36.65;101566.33;106342;1272;72515;-85
2023/06/14 10:47:57;;;;;;;;;;;;;;;23.60;36.65;101574.05;106254;1268;124457;-86
2023/06/14 10:50:29;;;;;;;;;;;;;;;23.64;36.57;101566.84;106225;1267;62593;-85
2023/06/14 10:52:56;;;;;;;;;;;;;;;23.64;35.88;101568.08;106181;1267;124646;-85
2023/06/14 10:58:30;;;;;;;;;;;;;;;23.56;36.47;101567.32;106930;1261;70708;-84
2023/06/14 11:01:03;;;;;;;;;;;;;;;23.52;36.75;101567.20;106777;1263;124303;-84
2023/06/14 11:03:35;;;;;;;;;;;;;;;23.54;36.91;101574.33;106613;1261;61534;-85
2023/06/14 11:06:09;;;;;;;;;;;;;;;23.43;36.60;101568.75;106663;1262;124448;-85
2023/06/14 11:08:52;;;;;;;;;;;;;;;23.40;36.86;101570.77;106829;1263;65785;-84
2023/06/14 11:11:27;;;;;;;;;;;;;;;23.42;36.34;101572.36;106763;1262;124635;-86
2023/06/14 11:13:54;;;;;;;;;;;;;;;23.36;36.20;101573.52;106738;1260;61251;-85
2023/06/14 11:16:20;;;;;;;;;;;;;;;23.34;36.07;101560.48;106850;1260;61485;-84
2023/06/14 11:18:46;;;;;;;;;;;;;;;23.39;36.48;101565.25;106900;1261;124278;-85
2023/06/14 11:21:25;;;;;;;;;;;;;;;23.39;37.19;101562.92;106795;1260;60245;-84
2023/06/14 11:23:59;;;;;;;;;;;;;;;23.34;37.43;101562.09;106714;1260;124536;-84
2023/06/14 11:26:47;;;;;;;;;;;;;;;23.31;37.73;101556.05;107113;1264;62072;-86
2023/06/14 11:29:15;;;;;;;;;;;;;;;23.32;37.66;101558.37;106924;1262;124566;-85
2023/06/14 11:32:01;;;;;;;;;;;;;;;23.34;37.36;101567.83;107128;1261;73400;-84
2023/06/14 11:34:28;;;;;;;;;;;;;;;23.30;37.07;101555.17;106825;1267;65945;-84
2023/06/14 11:37:03;;;;;;;;;;;;;;;23.33;36.69;101568.02;106960;1262;124077;-85
2023/06/14 11:39:33;;;;;;;;;;;;;;;23.31;36.49;101556.05;107102;1261;59717;-84
2023/06/14 11:42:01;;;;;;;;;;;;;;;23.31;36.46;101551.20;106590;1262;124621;-85
2023/06/14 11:44:27;;;;;;;;;;;;;;;23.37;36.28;101548.42;106908;1261;75111;-84
2023/06/14 11:46:56;;;;;;;;;;;;;;;23.37;36.42;101558.10;106922;1261;124431;-84
2023/06/14 11:49:24;;;;;;;;;;;;;;;23.36;36.62;101553.11;107011;1263;71226;-85
2023/06/14 11:51:51;;;;;;;;;;;;;;;23.30;36.89;101551.95;106897;1260;60755;-86
2023/06/14 11:54:19;;;;;;;;;;;;;;;23.26;37.31;101552.17;106742;1261;124757;-86
2023/06/14 11:56:49;;;;;;;;;;;;;;;23.19;37.03;101549.25;106697;1260;74026;-85
2023/06/14 11:59:16;;;;;;;;;;;;;;;23.13;37.40;101555.78;106649;1260;124567;-85
2023/06/14 12:01:50;;;;;;;;;;;;;;;23.05;37.65;101546.77;106741;1262;71767;-86
2023/06/14 12:04:48;;;;;;;;;;;;;;;23.05;37.41;101550.52;106885;1262;61278;-85
2023/06/14 12:07:17;;;;;;;;;;;;;;;22.98;37.82;101548.42;106602;1266;61327;-85
2023/06/14 12:10:10;;;;;;;;;;;;;;;22.95;37.79;101549.38;106912;1261;74590;-86
2023/06/14 12:12:39;;;;;;;;;;;;;;;22.91;37.95;101546.92;106687;1261;124975;-85
2023/06/14 12:15:07;;;;;;;;;;;;;;;22.97;38.18;101545.04;106850;1262;73098;-85
2023/06/14 12:17:34;;;;;;;;;;;;;;;23.00;38.13;101544.30;107121;1262;124490;-86
2023/06/14 12:20:15;;;;;;;;;;;;;;;23.04;38.22;101541.58;107178;1261;60245;-87
2023/06/14 12:23:04;;;;;;;;;;;;;;;23.08;38.08;101547.79;106937;1261;125130;-85
2023/06/14 12:25:41;;;;;;;;;;;;;;;23.01;38.04;101541.77;106978;1261;66181;-86
2023/06/14 12:28:13;;;;;;;;;;;;;;;23.06;38.07;101536.71;106815;1262;71419;-85
2023/06/14 12:30:45;;;;;;;;;;;;;;;23.12;37.67;101539.88;106886;1261;124328;-86
2023/06/14 12:33:13;;;;;;;;;;;;;;;23.15;37.40;101539.46;107123;1262;60213;-85
2023/06/14 12:35:39;;;;;;;;;;;;;;;23.23;37.45;101536.45;106988;1262;123697;-86
2023/06/14 12:38:08;;;;;;;;;;;;;;;23.37;37.46;101534.83;106748;1265;61368;-86
2023/06/14 12:40:49;;;;;;;;;;;;;;;23.54;37.35;101539.73;106650;1260;71134;-85
2023/06/14 12:43:18;;;;;;;;;;;;;;;23.70;37.23;101537.68;106898;1263;60745;-86
2023/06/14 12:45:51;;;;;;;;;;;;;;;23.88;36.95;101540.10;106922;1261;62272;-86
2023/06/14 12:48:18;;;;;;;;;;;;;;;23.99;36.35;101539.20;106734;1265;125640;-86
2023/06/14 12:50:47;;;;;;;;;;;;;;;23.99;36.04;101541.86;106801;1261;61281;-85
2023/06/14 12:53:14;;;;;;;;;;;;;;;24.03;35.88;101537.33;106713;1264;124793;-85